Airfield :
LOGIN :

Register | Disclaimer

   EN    FR    IT 

 










Legend :    VFR   Marginal VFR   IFR   Intensive IFR   Very Intensive IFR
Visi :
Ceiling :
>= 8 km
>= 3000ft
5 to 8 km
1000 to 3000 ft
1500m to 5 km
500 to 1000 ft
800 to 1500m
200 to 500 ft
< 800m
< 200 ft
Symbols :   Thunderstorms  Fog  Heavy snow  Heavy precipitations  Wind > 20 kt
SIGMETs :     Misc.  Thunderstorms  Icing  Turbulence  Mountain Waves  Volcanic Ashes






- Airport Elevation : 287 ft


LFRL - Lanveoc Poulmic

CURRENT METAR :
  • 211400Z AUTO 18007KT 9999 FEW043/// OVC060/// ///TCU 09/05 Q0995 TEMPO 18015G25KT 2000 SHRA BKN014CB BKN020TCU

EXPIRED METARs :
  • 211330Z AUTO 18007KT 9999 FEW040 BKN046 BKN058 10/06 Q0995 TEMPO 18015G25KT 2000 SHRA BKN014CB BKN020TCU
  • 211300Z AUTO 19008KT 9999 FEW036/// SCT046/// BKN052/// ///TCU 10/06 Q0995 TEMPO 18015G25KT 2000 SHRA BKN014CB BKN020TCU
  • 211230Z AUTO 20010KT 9999 FEW019/// SCT029/// BKN037/// ///TCU 09/06 Q0996 TEMPO 18015G25KT 2000 SHRA BKN014CB BKN020TCU
  • 211200Z AUTO 18008KT 160V220 9999 FEW021/// SCT026/// BKN049/// ///TCU 10/07 Q0996 TEMPO 18015G25KT 2000 SHRA BKN014CB BKN020TCU
  • 211130Z AUTO 19005KT 9999 FEW038/// SCT082/// BKN110/// ///TCU 10/08 Q0996 TEMPO 18015G25KT 2000 SHRA BKN014CB BKN020TCU

TAF TAF LFRL
Valid from the 21 at 12:00 until the 22 at 12:00 UTC


211100Z 2112/2212 18010KT 9999 SCT027 BKN035 BKN040
TEMPO 2112/2206 18015G25KT 2000 SHRA BKN014CB BKN020TCU
PROB30
TEMPO 2115/2124 TSRA
BECMG 2203/2206 RA BKN009 OVC040



MET'MAP, your aeronautical weather chart ! - Copyright ORBIFLY December 2007 - Disclaimer

ORBIFLY MET'MAP TEAM :

Programming & Development : Alexandra Zaïnal
Concept & Development : Baudouin d'Aumeries
Co-Development & Prog : Marc-Olivier Méhu
Technical & hardware support : Manuel Goepfert

Contact : metmap@orbifly.com




SOURCES & CREDITS :

   NOAA